X  Sulje Metar Aviation säätiedot     EFOU Oulu Airport
Lämpötila
2°C Lämpötila
-2°C Kastepiste
75% Kosteus



Tuuli
6 MPH
10 KM/h
3 M/S
5 KTS



190°
E
Nykyiset olosuhteet

Puolipilvistä Puolipilvistä
Paine 1011.85 (hPa) - 29.88 (inHg)
Näkyvyys 6 (maili) - 9.7 (km)
Lentokenttä
Lentokentän koodi EFOU

Sijainti: Oulu Airport
Etäisyys: 83 (mi)

Metar:
EFOU 240750Z AUTO 19005KT 150V210 9999 FEW013 OVC037 02/M02 Q1012

Aika: 24-04-2024 10:50 EEST